Fairview, Kansas
Current Conditions -  °F | °C
As of 9:53 AM on Wednesday 22 Oct 2014 (Local Time) from KFNB Reporting Station
Haze Haze  
Wind Chill: 60°   Ceiling: Unl
Heat Index: 60°   Visibility: 6mi
Dew Point: 48°   Wind: 12mph
Humidity: 64%   Direction: 140°SE
Pressure: 30.14"   Gusts: NA
Location:  39.84°N, 95.73°W
Report Text: KFNB 221453Z AUTO 14010KT 6SM HZ CLR 16/09 A3014 RMK AO2 SLP205 T01560089 53002
Loading
Personal Weather Stations






























Interactive Weather Map
Tropical Storm Tracking
New forecast layout! Learn more

10-Day Weather Forecast

Advertisements
Track Severe Weather on mobile